Wetterdaten: Woche 15.02.16 - 21.02.16 (KW7)
Datum Zeit Temp. Aussen Temp. o. S. +5cm Feuchte Auss BlattFeu 1 Luftdruck Regen Sonnenschein Regendauer Solar Windben Empfang
15.02.2016 00:00 0,7 C 0,8 C -0,1 C 96 % 15 lf 999,7 hPa 0,2 l/m 0,00 h 0,33 h 0 W/m 12,6 km/h (3 Bft) 97,38 %
15.02.2016 01:00 0,8 C 1,0 C -0,4 C 97 % 15 lf 1000,6 hPa 0,0 l/m 0,00 h 0,77 h 0 W/m 14,3 km/h (3 Bft) 95,51 %
15.02.2016 02:00 0,6 C 0,6 C -0,7 C 97 % 15 lf 1002,0 hPa 0,2 l/m 0,00 h 1,00 h 0 W/m 14,3 km/h (3 Bft) 94,87 %
15.02.2016 03:00 0,4 C 0,6 C -1,1 C 97 % 15 lf 1003,3 hPa 0,2 l/m 0,00 h 1,00 h 0 W/m 16,9 km/h (3 Bft) 96,51 %
15.02.2016 04:00 0,3 C 0,6 C -1,1 C 97 % 15 lf 1004,7 hPa 0,2 l/m 0,00 h 0,95 h 0 W/m 21,1 km/h (4 Bft) 96,36 %
15.02.2016 05:00 0,3 C 0,6 C -1,1 C 97 % 15 lf 1006,2 hPa 0,4 l/m 0,00 h 0,97 h 0 W/m 20,3 km/h (4 Bft) 97,01 %
15.02.2016 06:00 0,3 C 0,6 C -1,1 C 97 % 15 lf 1007,5 hPa 0,4 l/m 0,00 h 1,00 h 0 W/m 23,0 km/h (4 Bft) 95,44 %
15.02.2016 07:00 0,3 C 0,6 C -0,9 C 98 % 15 lf 1009,1 hPa 0,6 l/m 0,00 h 1,00 h 5 W/m 23,6 km/h (4 Bft) 95,24 %
15.02.2016 08:00 0,3 C 0,6 C -0,9 C 98 % 15 lf 1010,8 hPa 0,4 l/m 0,00 h 1,00 h 20 W/m 24,2 km/h (4 Bft) 95,73 %
15.02.2016 09:00 0,4 C 1,0 C -0,7 C 98 % 15 lf 1012,3 hPa 0,6 l/m 0,00 h 1,00 h 80 W/m 25,4 km/h (4 Bft) 97,01 %
15.02.2016 10:00 0,6 C 1,4 C -0,3 C 98 % 15 lf 1013,7 hPa 1,0 l/m 0,00 h 1,00 h 104 W/m 30,3 km/h (5 Bft) 97,16 %
15.02.2016 11:00 1,2 C 2,0 C 0,0 C 97 % 15 lf 1015,2 hPa 0,6 l/m 0,00 h 0,83 h 116 W/m 29,5 km/h (5 Bft) 93,17 %
15.02.2016 12:00 1,7 C 3,2 C 0,5 C 92 % 5 lf 1016,6 hPa 0,6 l/m 0,13 h 0,60 h 148 W/m 29,5 km/h (5 Bft) 98,65 %
15.02.2016 13:00 2,7 C 7,7 C 1,8 C 85 % 0 lf 1017,8 hPa 0,4 l/m 0,90 h 0,00 h 385 W/m 32,4 km/h (5 Bft) 95,50 %
15.02.2016 14:00 3,2 C 6,9 C 2,8 C 82 % 0 lf 1018,8 hPa 0,0 l/m 0,83 h 0,00 h 278 W/m 23,1 km/h (4 Bft) 93,73 %
15.02.2016 15:00 3,7 C 7,4 C 2,4 C 76 % 0 lf 1019,9 hPa 0,0 l/m 0,70 h 0,00 h 220 W/m 27,6 km/h (4 Bft) 97,46 %
15.02.2016 16:00 3,2 C 4,3 C 2,0 C 75 % 0 lf 1021,2 hPa 0,0 l/m 0,73 h 0,00 h 94 W/m 24,0 km/h (4 Bft) 97,23 %
15.02.2016 17:00 2,5 C 2,2 C 0,9 C 77 % 0 lf 1022,5 hPa 0,0 l/m 0,07 h 0,00 h 19 W/m 13,6 km/h (3 Bft) 94,23 %
15.02.2016 18:00 1,4 C -0,0 C -1,2 C 81 % 0 lf 1024,0 hPa 0,0 l/m 0,00 h 0,00 h 5 W/m 7,2 km/h (2 Bft) 96,65 %
15.02.2016 19:00 0,4 C -0,3 C -1,4 C 84 % 0 lf 1025,2 hPa 0,0 l/m 0,00 h 0,00 h 0 W/m 10,4 km/h (2 Bft) 95,94 %
15.02.2016 20:00 0,0 C -0,5 C -1,5 C 85 % 0 lf 1026,2 hPa 0,0 l/m 0,00 h 0,00 h 0 W/m 9,0 km/h (2 Bft) 96,52 %
15.02.2016 21:00 -0,5 C -2,0 C -2,9 C 86 % 0 lf 1027,4 hPa 0,0 l/m 0,00 h 0,00 h 0 W/m 4,8 km/h (1 Bft) 97,29 %
15.02.2016 22:00 -1,6 C -3,4 C -4,0 C 86 % 2 lf 1028,4 hPa 0,0 l/m 0,00 h 0,00 h 0 W/m 1,6 km/h (1 Bft) 95,16 %
15.02.2016 23:00 -2,5 C -3,9 C -4,4 C 88 % 4 lf 1029,4 hPa 0,0 l/m 0,00 h 0,00 h 0 W/m 1,0 km/h (0 Bft) 94,30 %
16.02.2016 00:00 -2,9 C -4,3 C -4,4 C 90 % 0 lf 1030,6 hPa 0,0 l/m 0,00 h 0,00 h 0 W/m 2,2 km/h (1 Bft) 96,76 %
16.02.2016 01:00 -3,3 C -4,4 C -4,9 C 91 % 0 lf 1031,7 hPa 0,0 l/m 0,00 h 0,00 h 0 W/m 0,3 km/h (0 Bft) 98,15 %
16.02.2016 02:00 -3,3 C -3,1 C -3,8 C 92 % 0 lf 1032,3 hPa 0,0 l/m 0,00 h 0,00 h 0 W/m 1,2 km/h (1 Bft) 95,58 %
16.02.2016 03:00 -2,8 C -3,2 C -3,8 C 93 % 0 lf 1032,4 hPa 0,0 l/m 0,00 h 0,00 h 0 W/m 0,8 km/h (0 Bft) 95,57 %
16.02.2016 04:00 -3,0 C -4,4 C -4,7 C 94 % 0 lf 1032,6 hPa 0,0 l/m 0,00 h 0,00 h 0 W/m 0,0 km/h (0 Bft) 95,16 %
16.02.2016 05:00 -3,7 C -4,8 C -5,4 C 94 % 0 lf 1033,3 hPa 0,0 l/m 0,00 h 0,00 h 0 W/m 0,3 km/h (0 Bft) 95,30 %
16.02.2016 06:00 -4,2 C -5,6 C -5,6 C 94 % 0 lf 1033,9 hPa 0,0 l/m 0,00 h 0,00 h 0 W/m 0,8 km/h (0 Bft) 96,73 %
16.02.2016 07:00 -4,4 C -5,4 C -6,1 C 94 % 0 lf 1034,5 hPa 0,0 l/m 0,00 h 0,00 h 8 W/m 0,4 km/h (0 Bft) 97,01 %
16.02.2016 08:00 -4,7 C -4,9 C -5,4 C 94 % 0 lf 1035,2 hPa 0,0 l/m 0,57 h 0,00 h 59 W/m 0,6 km/h (0 Bft) 95,88 %
16.02.2016 09:00 -3,5 C 2,0 C -2,7 C 95 % 0 lf 1036,0 hPa 0,0 l/m 1,00 h 0,10 h 186 W/m 3,2 km/h (1 Bft) 95,45 %
16.02.2016 10:00 -0,3 C 11,2 C -0,1 C 97 % 9 lf 1036,3 hPa 0,0 l/m 1,00 h 0,00 h 334 W/m 3,9 km/h (1 Bft) 95,51 %
16.02.2016 11:00 1,8 C 13,8 C 1,8 C 94 % 13 lf 1036,3 hPa 0,0 l/m 0,93 h 0,00 h 420 W/m 9,0 km/h (2 Bft) 94,39 %
16.02.2016 12:00 3,9 C 13,9 C 2,5 C 76 % 0 lf 1036,2 hPa 0,0 l/m 1,00 h 0,00 h 458 W/m 11,4 km/h (2 Bft) 95,04 %
16.02.2016 13:00 5,1 C 12,6 C 2,6 C 67 % 0 lf 1035,7 hPa 0,0 l/m 1,00 h 0,00 h 442 W/m 15,5 km/h (3 Bft) 95,09 %
16.02.2016 14:00 5,5 C 12,5 C 2,9 C 65 % 0 lf 1035,0 hPa 0,0 l/m 0,98 h 0,00 h 380 W/m 15,2 km/h (3 Bft) 92,62 %
16.02.2016 15:00 5,9 C 11,8 C 2,9 C 62 % 0 lf 1034,6 hPa 0,0 l/m 1,00 h 0,00 h 253 W/m 11,6 km/h (2 Bft) 95,80 %
16.02.2016 16:00 4,9 C 6,8 C 2,3 C 61 % 0 lf 1034,4 hPa 0,0 l/m 0,67 h 0,00 h 102 W/m 15,3 km/h (3 Bft) 93,87 %
16.02.2016 17:00 3,7 C 3,1 C 0,8 C 65 % 0 lf 1034,2 hPa 0,0 l/m 0,00 h 0,00 h 18 W/m 11,2 km/h (2 Bft) 97,72 %
16.02.2016 18:00 2,0 C -0,0 C -2,2 C 70 % 0 lf 1034,4 hPa 0,0 l/m 0,00 h 0,00 h 0 W/m 7,1 km/h (2 Bft) 97,23 %
16.02.2016 19:00 0,6 C 0,6 C -1,6 C 75 % 0 lf 1034,1 hPa 0,0 l/m 0,00 h 0,00 h 0 W/m 12,3 km/h (3 Bft) 94,10 %
16.02.2016 20:00 0,2 C 0,0 C -1,8 C 78 % 0 lf 1033,8 hPa 0,0 l/m 0,00 h 0,00 h 0 W/m 14,0 km/h (3 Bft) 94,45 %
16.02.2016 21:00 -0,6 C -1,1 C -2,6 C 81 % 0 lf 1033,5 hPa 0,0 l/m 0,00 h 0,00 h 0 W/m 9,6 km/h (2 Bft) 96,94 %
16.02.2016 22:00 -1,2 C -1,1 C -2,8 C 85 % 0 lf 1032,9 hPa 0,0 l/m 0,00 h 0,00 h 0 W/m 11,7 km/h (2 Bft) 96,87 %
16.02.2016 23:00 -1,3 C -1,5 C -2,9 C 86 % 0 lf 1032,1 hPa 0,0 l/m 0,00 h 0,00 h 0 W/m 7,8 km/h (2 Bft) 96,01 %
17.02.2016 00:00 -1,8 C -2,2 C -4,0 C 86 % 0 lf 1031,6 hPa 0,0 l/m 0,00 h 0,00 h 0 W/m 5,9 km/h (2 Bft) 94,32 %
17.02.2016 01:00 -2,5 C -3,5 C -4,6 C 86 % 0 lf 1030,9 hPa 0,0 l/m 0,00 h 0,00 h 0 W/m 5,7 km/h (1 Bft) 95,72 %
17.02.2016 02:00 -2,6 C -2,5 C -4,0 C 88 % 0 lf 1030,0 hPa 0,0 l/m 0,00 h 0,00 h 0 W/m 9,0 km/h (2 Bft) 95,59 %
17.02.2016 03:00 -2,9 C -3,2 C -4,7 C 88 % 0 lf 1029,1 hPa 0,0 l/m 0,00 h 0,00 h 0 W/m 6,8 km/h (2 Bft) 97,15 %
17.02.2016 04:00 -3,0 C -2,9 C -4,4 C 89 % 0 lf 1028,2 hPa 0,0 l/m 0,00 h 0,00 h 0 W/m 7,1 km/h (2 Bft) 85,60 %
17.02.2016 05:00 -3,2 C -3,2 C -4,5 C 89 % 0 lf 1027,3 hPa 0,0 l/m 0,00 h 0,00 h 0 W/m 11,5 km/h (2 Bft) 94,37 %
17.02.2016 06:00 -3,4 C -3,8 C -5,0 C 90 % 0 lf 1026,4 hPa 0,0 l/m 0,00 h 0,00 h 0 W/m 6,1 km/h (2 Bft) 98,54 %
17.02.2016 07:00 -3,8 C -3,9 C -5,6 C 91 % 0 lf 1025,4 hPa 0,0 l/m 0,00 h 0,00 h 8 W/m 5,8 km/h (2 Bft) 95,45 %
17.02.2016 08:00 -4,1 C -3,8 C -5,1 C 91 % 0 lf 1024,8 hPa 0,0 l/m 0,43 h 0,00 h 46 W/m 3,9 km/h (1 Bft) 96,17 %
17.02.2016 09:00 -2,5 C 2,4 C -1,9 C 93 % 0 lf 1023,8 hPa 0,0 l/m 1,00 h 0,00 h 199 W/m 10,7 km/h (2 Bft) 94,19 %
17.02.2016 10:00 0,7 C 7,0 C 0,1 C 86 % 0 lf 1022,8 hPa 0,2 l/m 1,00 h 0,00 h 332 W/m 17,9 km/h (3 Bft) 96,72 %
17.02.2016 11:00 2,6 C 10,1 C 2,2 C 78 % 0 lf 1021,4 hPa 0,0 l/m 1,00 h 0,00 h 413 W/m 15,9 km/h (3 Bft) 96,51 %
17.02.2016 12:00 4,2 C 11,3 C 2,7 C 73 % 0 lf 1019,8 hPa 0,0 l/m 1,00 h 0,00 h 453 W/m 14,3 km/h (3 Bft) 97,65 %
17.02.2016 13:00 4,6 C 10,2 C 2,8 C 72 % 0 lf 1018,6 hPa 0,0 l/m 1,00 h 0,00 h 436 W/m 13,8 km/h (3 Bft) 94,16 %
17.02.2016 14:00 5,4 C 11,7 C 3,0 C 70 % 0 lf 1017,3 hPa 0,0 l/m 1,00 h 0,00 h 373 W/m 11,8 km/h (2 Bft) 95,23 %
17.02.2016 15:00 5,8 C 11,1 C 2,9 C 68 % 0 lf 1016,1 hPa 0,0 l/m 1,00 h 0,00 h 255 W/m 8,7 km/h (2 Bft) 96,22 %
17.02.2016 16:00 5,0 C 6,1 C 2,5 C 70 % 0 lf 1015,6 hPa 0,0 l/m 0,67 h 0,00 h 107 W/m 9,5 km/h (2 Bft) 94,46 %
17.02.2016 17:00 3,9 C 3,1 C 0,5 C 73 % 0 lf 1015,1 hPa 0,0 l/m 0,03 h 0,00 h 21 W/m 4,3 km/h (1 Bft) 97,29 %
17.02.2016 18:00 2,3 C 0,8 C -1,2 C 76 % 0 lf 1014,9 hPa 0,0 l/m 0,00 h 0,00 h 0 W/m 0,0 km/h (0 Bft) 95,80 %
17.02.2016 19:00 1,4 C 1,4 C -0,3 C 81 % 0 lf 1014,6 hPa 0,0 l/m 0,00 h 0,00 h 0 W/m 1,5 km/h (1 Bft) 96,94 %
17.02.2016 20:00 1,5 C 1,7 C 0,0 C 85 % 0 lf 1014,2 hPa 0,0 l/m 0,00 h 0,00 h 0 W/m 1,0 km/h (0 Bft) 96,01 %
17.02.2016 21:00 1,6 C 1,7 C 0,1 C 86 % 0 lf 1013,8 hPa 0,0 l/m 0,00 h 0,00 h 0 W/m 2,4 km/h (1 Bft) 93,88 %
17.02.2016 22:00 1,5 C 1,6 C 0,0 C 86 % 0 lf 1013,6 hPa 0,0 l/m 0,00 h 0,00 h 0 W/m 0,0 km/h (0 Bft) 96,91 %
17.02.2016 23:00 1,5 C 2,0 C 0,3 C 87 % 0 lf 1013,3 hPa 0,0 l/m 0,00 h 0,00 h 0 W/m 3,3 km/h (1 Bft) 97,94 %
18.02.2016 00:00 2,0 C 2,8 C 1,0 C 87 % 0 lf 1013,2 hPa 0,0 l/m 0,00 h 0,00 h 0 W/m 8,2 km/h (2 Bft) 94,93 %
18.02.2016 01:00 2,5 C 2,8 C 1,1 C 84 % 0 lf 1013,1 hPa 0,0 l/m 0,00 h 0,00 h 0 W/m 10,6 km/h (2 Bft) 95,94 %
18.02.2016 02:00 2,5 C 2,8 C 1,1 C 85 % 0 lf 1013,1 hPa 0,0 l/m 0,00 h 0,00 h 0 W/m 11,7 km/h (2 Bft) 95,16 %
18.02.2016 03:00 2,3 C 2,6 C 1,1 C 85 % 0 lf 1013,1 hPa 0,0 l/m 0,00 h 0,00 h 0 W/m 14,2 km/h (3 Bft) 96,44 %
18.02.2016 04:00 2,1 C 1,9 C 0,7 C 86 % 0 lf 1013,2 hPa 0,0 l/m 0,00 h 0,00 h 0 W/m 11,2 km/h (2 Bft) 97,53 %
18.02.2016 05:00 1,8 C 2,2 C 0,6 C 86 % 0 lf 1013,2 hPa 0,0 l/m 0,00 h 0,00 h 0 W/m 11,5 km/h (2 Bft) 94,72 %
18.02.2016 06:00 1,8 C 2,2 C 0,6 C 82 % 0 lf 1013,5 hPa 0,0 l/m 0,00 h 0,00 h 0 W/m 11,2 km/h (2 Bft) 96,32 %
18.02.2016 07:00 1,7 C 2,2 C 0,6 C 76 % 0 lf 1013,8 hPa 0,0 l/m 0,00 h 0,00 h 8 W/m 13,2 km/h (3 Bft) 95,24 %
18.02.2016 08:00 1,6 C 2,1 C 0,3 C 71 % 0 lf 1014,1 hPa 0,0 l/m 0,43 h 0,00 h 55 W/m 11,5 km/h (2 Bft) 98,41 %
18.02.2016 09:00 2,2 C 4,9 C 2,1 C 69 % 0 lf 1014,3 hPa 0,0 l/m 1,00 h 0,00 h 159 W/m 12,5 km/h (3 Bft) 94,02 %
18.02.2016 10:00 3,7 C 7,3 C 3,4 C 66 % 0 lf 1014,2 hPa 0,0 l/m 1,00 h 0,00 h 267 W/m 18,7 km/h (3 Bft) 96,02 %
18.02.2016 11:00 4,2 C 7,5 C 4,1 C 66 % 0 lf 1014,4 hPa 0,0 l/m 1,00 h 0,00 h 327 W/m 24,9 km/h (4 Bft) 98,36 %
18.02.2016 12:00 5,1 C 9,2 C 5,0 C 65 % 0 lf 1014,5 hPa 0,0 l/m 1,00 h 0,00 h 388 W/m 21,8 km/h (4 Bft) 94,27 %
18.02.2016 13:00 5,7 C 10,4 C 4,7 C 63 % 0 lf 1014,1 hPa 0,0 l/m 1,00 h 0,00 h 334 W/m 19,4 km/h (3 Bft) 96,61 %
18.02.2016 14:00 5,9 C 12,1 C 4,4 C 61 % 0 lf 1014,1 hPa 0,0 l/m 1,00 h 0,00 h 325 W/m 18,9 km/h (3 Bft) 95,94 %
18.02.2016 15:00 5,7 C 7,7 C 3,8 C 61 % 0 lf 1014,2 hPa 0,0 l/m 0,40 h 0,00 h 149 W/m 13,7 km/h (3 Bft) 94,59 %
18.02.2016 16:00 5,0 C 5,5 C 3,7 C 64 % 0 lf 1014,5 hPa 0,0 l/m 0,00 h 0,00 h 74 W/m 9,2 km/h (2 Bft) 98,22 %
18.02.2016 17:00 4,6 C 4,2 C 2,4 C 65 % 0 lf 1014,7 hPa 0,0 l/m 0,00 h 0,00 h 15 W/m 4,4 km/h (1 Bft) 94,37 %
18.02.2016 18:00 3,6 C 2,5 C 0,7 C 67 % 0 lf 1015,1 hPa 0,0 l/m 0,00 h 0,00 h 0 W/m 0,8 km/h (0 Bft) 94,88 %
18.02.2016 19:00 2,6 C 2,2 C -0,3 C 72 % 0 lf 1015,2 hPa 0,0 l/m 0,00 h 0,00 h 0 W/m 2,5 km/h (1 Bft) 96,51 %
18.02.2016 20:00 2,0 C 1,9 C -0,5 C 76 % 0 lf 1015,5 hPa 0,0 l/m 0,00 h 0,00 h 0 W/m 4,3 km/h (1 Bft) 97,58 %
18.02.2016 21:00 1,2 C -0,1 C -1,9 C 77 % 0 lf 1015,7 hPa 0,0 l/m 0,00 h 0,00 h 0 W/m 0,8 km/h (0 Bft) 95,37 %
18.02.2016 22:00 -0,1 C -1,6 C -2,7 C 80 % 0 lf 1015,9 hPa 0,0 l/m 0,00 h 0,00 h 0 W/m 0,0 km/h (0 Bft) 94,88 %
18.02.2016 23:00 -1,0 C -1,5 C -2,6 C 84 % 0 lf 1015,9 hPa 0,0 l/m 0,00 h 0,00 h 0 W/m 0,0 km/h (0 Bft) 95,80 %
19.02.2016 00:00 -1,3 C -1,9 C -2,8 C 87 % 0 lf 1016,4 hPa 0,0 l/m 0,00 h 0,00 h 0 W/m 0,8 km/h (0 Bft) 94,40 %
19.02.2016 01:00 -1,4 C -1,1 C -2,3 C 89 % 0 lf 1016,8 hPa 0,0 l/m 0,00 h 0,00 h 0 W/m 3,3 km/h (1 Bft) 97,58 %
19.02.2016 02:00 -1,0 C -0,6 C -1,7 C 91 % 0 lf 1016,8 hPa 0,0 l/m 0,00 h 0,00 h 0 W/m 2,5 km/h (1 Bft) 96,58 %
19.02.2016 03:00 -0,7 C -0,2 C -1,4 C 92 % 0 lf 1016,9 hPa 0,0 l/m 0,00 h 0,00 h 0 W/m 4,5 km/h (1 Bft) 95,65 %
19.02.2016 04:00 -0,6 C -0,6 C -1,7 C 92 % 0 lf 1016,8 hPa 0,0 l/m 0,00 h 0,00 h 0 W/m 0,2 km/h (0 Bft) 94,73 %
19.02.2016 05:00 -0,5 C -0,0 C -1,7 C 92 % 0 lf 1017,2 hPa 0,0 l/m 0,00 h 0,00 h 0 W/m 0,2 km/h (0 Bft) 97,44 %
19.02.2016 06:00 -0,2 C 0,3 C -0,9 C 92 % 0 lf 1017,7 hPa 0,0 l/m 0,00 h 0,00 h 0 W/m 4,1 km/h (1 Bft) 96,94 %
19.02.2016 07:00 0,3 C 0,8 C -0,6 C 93 % 5 lf 1018,2 hPa 0,0 l/m 0,00 h 0,00 h 3 W/m 3,4 km/h (1 Bft) 95,61 %
19.02.2016 08:00 0,6 C 1,1 C -0,2 C 93 % 14 lf 1018,7 hPa 0,0 l/m 0,00 h 0,67 h 16 W/m 4,3 km/h (1 Bft) 95,31 %
19.02.2016 09:00 1,1 C 1,8 C 0,4 C 94 % 15 lf 1019,0 hPa 0,2 l/m 0,00 h 0,97 h 57 W/m 5,8 km/h (2 Bft) 96,50 %
19.02.2016 10:00 1,7 C 2,4 C 1,1 C 95 % 15 lf 1019,5 hPa 0,0 l/m 0,00 h 0,93 h 89 W/m 10,2 km/h (2 Bft) 95,73 %
19.02.2016 11:00 2,0 C 2,8 C 1,2 C 95 % 14 lf 1019,9 hPa 0,0 l/m 0,00 h 0,17 h 83 W/m 12,2 km/h (2 Bft) 97,86 %
19.02.2016 12:00 2,6 C 4,2 C 2,3 C 95 % 1 lf 1020,0 hPa 0,0 l/m 0,00 h 0,00 h 129 W/m 10,1 km/h (2 Bft) 95,30 %
19.02.2016 13:00 4,3 C 8,5 C 4,2 C 95 % 0 lf 1019,9 hPa 0,0 l/m 0,53 h 0,00 h 256 W/m 10,6 km/h (2 Bft) 94,02 %
19.02.2016 14:00 6,1 C 13,1 C 4,9 C 88 % 0 lf 1019,9 hPa 0,0 l/m 0,87 h 0,00 h 343 W/m 12,1 km/h (2 Bft) 97,37 %
19.02.2016 15:00 7,7 C 13,4 C 5,6 C 75 % 0 lf 1019,6 hPa 0,0 l/m 0,87 h 0,00 h 267 W/m 11,5 km/h (2 Bft) 96,01 %
19.02.2016 16:00 7,2 C 8,0 C 5,3 C 71 % 0 lf 1019,4 hPa 0,0 l/m 0,63 h 0,00 h 114 W/m 12,4 km/h (3 Bft) 97,30 %
19.02.2016 17:00 6,4 C 6,1 C 3,8 C 70 % 0 lf 1019,5 hPa 0,0 l/m 0,50 h 0,00 h 32 W/m 10,1 km/h (2 Bft) 96,59 %
19.02.2016 18:00 5,2 C 4,2 C 1,8 C 75 % 0 lf 1019,5 hPa 0,0 l/m 0,00 h 0,00 h 5 W/m 8,1 km/h (2 Bft) 94,10 %
19.02.2016 19:00 3,3 C 2,7 C 1,1 C 84 % 0 lf 1019,8 hPa 0,0 l/m 0,00 h 0,00 h 0 W/m 9,7 km/h (2 Bft) 95,64 %
19.02.2016 20:00 2,3 C 2,2 C 0,6 C 89 % 0 lf 1019,4 hPa 0,0 l/m 0,00 h 0,00 h 0 W/m 9,1 km/h (2 Bft) 97,31 %
19.02.2016 21:00 1,9 C 2,2 C 0,6 C 88 % 0 lf 1019,0 hPa 0,0 l/m 0,00 h 0,00 h 0 W/m 11,1 km/h (2 Bft) 95,89 %
19.02.2016 22:00 2,2 C 2,6 C 0,8 C 87 % 0 lf 1018,3 hPa 0,0 l/m 0,00 h 0,00 h 0 W/m 16,2 km/h (3 Bft) 95,87 %
19.02.2016 23:00 2,9 C 3,3 C 1,6 C 87 % 0 lf 1017,7 hPa 0,0 l/m 0,00 h 0,00 h 0 W/m 19,7 km/h (3 Bft) 96,65 %
20.02.2016 00:00 3,4 C 3,9 C 2,1 C 86 % 0 lf 1017,0 hPa 0,0 l/m 0,00 h 0,00 h 0 W/m 20,7 km/h (4 Bft) 93,40 %
20.02.2016 01:00 4,3 C 4,8 C 3,1 C 85 % 0 lf 1015,8 hPa 0,0 l/m 0,00 h 0,00 h 0 W/m 24,4 km/h (4 Bft) 98,43 %
20.02.2016 02:00 5,0 C 5,5 C 3,8 C 83 % 0 lf 1014,8 hPa 0,0 l/m 0,00 h 0,00 h 0 W/m 26,8 km/h (4 Bft) 97,08 %
20.02.2016 03:00 5,4 C 4,7 C 3,2 C 85 % 12 lf 1013,9 hPa 0,4 l/m 0,00 h 0,97 h 0 W/m 27,5 km/h (4 Bft) 92,95 %
20.02.2016 04:00 5,3 C 4,4 C 2,9 C 88 % 10 lf 1012,3 hPa 0,2 l/m 0,00 h 1,00 h 0 W/m 35,0 km/h (5 Bft) 97,38 %
20.02.2016 05:00 5,4 C 4,7 C 3,3 C 88 % 8 lf 1011,5 hPa 0,2 l/m 0,00 h 1,00 h 0 W/m 28,7 km/h (4 Bft) 96,94 %
20.02.2016 06:00 5,2 C 4,7 C 3,3 C 91 % 15 lf 1010,9 hPa 0,4 l/m 0,00 h 0,43 h 0 W/m 28,1 km/h (4 Bft) 96,09 %
20.02.2016 07:00 5,6 C 5,4 C 3,9 C 93 % 7 lf 1010,3 hPa 0,0 l/m 0,00 h 0,00 h 4 W/m 31,3 km/h (5 Bft) 95,37 %
20.02.2016 08:00 6,0 C 5,8 C 4,3 C 94 % 7 lf 1010,0 hPa 0,0 l/m 0,00 h 0,00 h 17 W/m 31,7 km/h (5 Bft) 95,59 %
20.02.2016 09:00 6,6 C 7,1 C 5,1 C 95 % 0 lf 1010,0 hPa 0,0 l/m 0,00 h 0,00 h 45 W/m 36,6 km/h (5 Bft) 96,01 %
20.02.2016 10:00 7,2 C 7,2 C 5,6 C 94 % 10 lf 1009,8 hPa 0,0 l/m 0,00 h 0,30 h 47 W/m 32,0 km/h (5 Bft) 96,79 %
20.02.2016 11:00 7,5 C 7,5 C 6,0 C 95 % 15 lf 1010,0 hPa 0,2 l/m 0,00 h 0,60 h 48 W/m 29,0 km/h (5 Bft) 95,30 %
20.02.2016 12:00 8,0 C 8,2 C 6,7 C 96 % 15 lf 1010,0 hPa 0,0 l/m 0,00 h 0,10 h 77 W/m 30,2 km/h (5 Bft) 95,04 %
20.02.2016 13:00 8,8 C 9,8 C 7,7 C 95 % 1 lf 1009,7 hPa 0,0 l/m 0,03 h 0,00 h 134 W/m 30,3 km/h (5 Bft) 96,05 %
20.02.2016 14:00 9,8 C 10,9 C 8,7 C 89 % 0 lf 1009,5 hPa 0,0 l/m 0,27 h 0,00 h 132 W/m 34,1 km/h (5 Bft) 97,51 %
20.02.2016 15:00 9,8 C 10,1 C 8,1 C 88 % 9 lf 1009,0 hPa 0,2 l/m 0,00 h 0,60 h 71 W/m 27,0 km/h (4 Bft) 94,73 %
20.02.2016 16:00 9,3 C 8,3 C 7,0 C 92 % 15 lf 1008,7 hPa 4,0 l/m 0,00 h 1,00 h 17 W/m 27,7 km/h (4 Bft) 94,26 %
20.02.2016 17:00 8,5 C 7,9 C 6,4 C 94 % 15 lf 1009,0 hPa 0,8 l/m 0,00 h 1,00 h 8 W/m 33,3 km/h (5 Bft) 97,93 %
20.02.2016 18:00 7,9 C 7,3 C 6,1 C 95 % 15 lf 1008,9 hPa 1,0 l/m 0,00 h 1,00 h 0 W/m 24,3 km/h (4 Bft) 94,66 %
20.02.2016 19:00 8,4 C 8,2 C 6,9 C 96 % 15 lf 1008,1 hPa 1,0 l/m 0,00 h 1,00 h 0 W/m 27,1 km/h (4 Bft) 96,01 %
20.02.2016 20:00 9,1 C 8,9 C 7,5 C 97 % 15 lf 1007,2 hPa 0,4 l/m 0,00 h 1,00 h 0 W/m 36,3 km/h (5 Bft) 96,16 %
20.02.2016 21:00 9,6 C 9,4 C 8,0 C 98 % 15 lf 1007,3 hPa 0,4 l/m 0,00 h 0,97 h 0 W/m 40,6 km/h (6 Bft) 95,16 %
20.02.2016 22:00 9,9 C 9,8 C 8,3 C 98 % 15 lf 1007,5 hPa 0,0 l/m 0,00 h 0,47 h 0 W/m 40,7 km/h (6 Bft) 95,44 %
20.02.2016 23:00 10,3 C 10,0 C 8,7 C 98 % 15 lf 1007,4 hPa 0,2 l/m 0,00 h 0,57 h 0 W/m 45,5 km/h (6 Bft) 97,79 %
21.02.2016 00:00 10,6 C 10,0 C 8,9 C 97 % 15 lf 1007,8 hPa 0,0 l/m 0,00 h 0,70 h 0 W/m 44,0 km/h (6 Bft) 92,76 %
21.02.2016 01:00 10,6 C 10,3 C 8,9 C 97 % 15 lf 1008,5 hPa 0,2 l/m 0,00 h 0,50 h 0 W/m 39,8 km/h (6 Bft) 98,36 %
21.02.2016 02:00 10,5 C 10,0 C 8,9 C 97 % 15 lf 1009,2 hPa 0,8 l/m 0,00 h 0,87 h 0 W/m 37,2 km/h (5 Bft) 97,86 %
21.02.2016 03:00 10,3 C 10,0 C 8,9 C 97 % 15 lf 1009,6 hPa 0,6 l/m 0,00 h 0,93 h 0 W/m 36,5 km/h (5 Bft) 93,02 %
21.02.2016 04:00 10,3 C 10,0 C 8,9 C 98 % 15 lf 1009,9 hPa 0,2 l/m 0,00 h 0,33 h 0 W/m 40,1 km/h (6 Bft) 97,33 %
21.02.2016 05:00 10,3 C 10,0 C 8,9 C 98 % 15 lf 1010,4 hPa 0,4 l/m 0,00 h 0,63 h 0 W/m 34,2 km/h (5 Bft) 97,43 %
21.02.2016 06:00 10,3 C 10,0 C 8,9 C 98 % 15 lf 1010,7 hPa 0,0 l/m 0,00 h 0,00 h 0 W/m 34,9 km/h (5 Bft) 94,82 %
21.02.2016 07:00 10,2 C 10,0 C 8,5 C 97 % 15 lf 1010,8 hPa 0,0 l/m 0,00 h 0,73 h 6 W/m 35,9 km/h (5 Bft) 96,29 %
21.02.2016 08:00 10,3 C 10,0 C 8,8 C 97 % 15 lf 1011,0 hPa 0,0 l/m 0,00 h 0,80 h 14 W/m 37,7 km/h (5 Bft) 96,66 %
21.02.2016 09:00 10,5 C 10,4 C 9,0 C 97 % 12 lf 1011,2 hPa 0,0 l/m 0,00 h 0,07 h 36 W/m 38,6 km/h (5 Bft) 94,72 %
21.02.2016 10:00 10,7 C 10,7 C 9,4 C 95 % 1 lf 1011,1 hPa 0,0 l/m 0,00 h 0,10 h 60 W/m 43,4 km/h (6 Bft) 98,79 %
21.02.2016 11:00 10,8 C 11,2 C 9,4 C 95 % 0 lf 1010,9 hPa 0,0 l/m 0,00 h 0,00 h 60 W/m 37,7 km/h (5 Bft) 94,09 %
21.02.2016 12:00 10,7 C 11,0 C 9,4 C 96 % 2 lf 1010,6 hPa 0,0 l/m 0,00 h 0,03 h 60 W/m 45,1 km/h (6 Bft) 95,35 %
21.02.2016 13:00 11,1 C 11,6 C 10,0 C 95 % 0 lf 1010,1 hPa 0,0 l/m 0,00 h 0,07 h 56 W/m 43,9 km/h (6 Bft) 97,56 %
21.02.2016 14:00 11,4 C 11,9 C 10,2 C 95 % 0 lf 1009,5 hPa 0,0 l/m 0,00 h 0,00 h 66 W/m 50,2 km/h (7 Bft) 95,71 %
21.02.2016 15:00 11,7 C 12,1 C 10,6 C 93 % 0 lf 1009,4 hPa 0,0 l/m 0,00 h 0,00 h 36 W/m 49,9 km/h (6 Bft) 93,56 %
21.02.2016 16:00 12,0 C 12,4 C 10,7 C 92 % 0 lf 1009,0 hPa 0,0 l/m 0,00 h 0,00 h 44 W/m 48,5 km/h (6 Bft) 98,34 %
21.02.2016 17:00 12,3 C 12,8 C 10,9 C 90 % 0 lf 1008,7 hPa 0,0 l/m 0,00 h 0,00 h 9 W/m 50,3 km/h (7 Bft) 94,71 %
21.02.2016 18:00 12,4 C 12,8 C 11,1 C 89 % 0 lf 1008,7 hPa 0,0 l/m 0,00 h 0,00 h 0 W/m 50,5 km/h (7 Bft) 96,72 %
21.02.2016 19:00 12,4 C 12,8 C 10,9 C 89 % 0 lf 1008,7 hPa 0,0 l/m 0,00 h 0,00 h 0 W/m 52,4 km/h (7 Bft) 95,87 %
21.02.2016 20:00 12,3 C 12,5 C 10,8 C 88 % 0 lf 1008,6 hPa 0,0 l/m 0,00 h 0,00 h 0 W/m 50,2 km/h (7 Bft) 95,66 %
21.02.2016 21:00 12,0 C 12,2 C 10,6 C 88 % 0 lf 1008,6 hPa 0,0 l/m 0,00 h 0,00 h 0 W/m 49,1 km/h (6 Bft) 96,30 %
21.02.2016 22:00 11,8 C 11,8 C 10,2 C 88 % 0 lf 1008,4 hPa 0,0 l/m 0,00 h 0,00 h 0 W/m 50,4 km/h (7 Bft) 97,29 %
21.02.2016 23:00 11,7 C 11,7 C 10,0 C 86 % 0 lf 1007,8 hPa 0,0 l/m 0,00 h 0,00 h 0 W/m 48,6 km/h (6 Bft) 93,38 %
Min-Datum _ 16.02.16 16.02.16 16.02.16 18.02.16 15.02.16 15.02.16 - - - - 15.02.16 17.02.16
_ Min-Zeit 08:10 07:14 07:04 15:08 12:48 00:00 - - - - 21:40 04:14
Minimum _ -4,8 C -6,1 C -6,1 C 59 % 0 lf 999,0 hPa - - - - 0,0 km/h (0 Bft) 0,00 %
Max-Datum _ 21.02.16 16.02.16 21.02.16 15.02.16 15.02.16 16.02.16 20.02.16 15.02.16 15.02.16 15.02.16 21.02.16 15.02.16
_ Max-Zeit 18:10 12:58 16:44 06:38 00:00 10:22 16:08 12:46 00:02 13:22 14:24 00:00
Maximum _ 12,5 C 18,3 C 11,1 C 98 % 15 lf 1036,4 hPa 4,0 l/m 0,03 h 0,03 h 534 W/m 69,0 km/h
W-SW (8 Bft)
100,00 %
Durchschnitt _ 3,5 C 4,4 C 2,0 C 86 % 4 lf 1017,6 hPa #17,8 l/m #30:11 h #32:07 h 143 W/m 18,0 km/h (3 Bft) 95,88 %
© 2016 W. Hausmann